sensor_id;sensor_type;location;lat;lon;timestamp;temperature;humidity
74368;DHT22;64991;41.090;-8.118;2023-12-22T00:01:44;13.30;78.00
74368;DHT22;64991;41.090;-8.118;2023-12-22T00:06:50;13.30;77.80
74368;DHT22;64991;41.090;-8.118;2023-12-22T00:11:54;13.30;78.20
74368;DHT22;64991;41.090;-8.118;2023-12-22T00:16:57;13.30;78.10
74368;DHT22;64991;41.090;-8.118;2023-12-22T00:22:03;13.30;78.20
74368;DHT22;64991;41.090;-8.118;2023-12-22T00:27:07;13.20;78.00
74368;DHT22;64991;41.090;-8.118;2023-12-22T00:32:11;13.30;78.00
74368;DHT22;64991;41.090;-8.118;2023-12-22T00:37:16;13.30;78.00
74368;DHT22;64991;41.090;-8.118;2023-12-22T00:42:20;13.20;77.90
74368;DHT22;64991;41.090;-8.118;2023-12-22T00:47:23;13.30;77.90
74368;DHT22;64991;41.090;-8.118;2023-12-22T00:52:29;13.30;77.90
74368;DHT22;64991;41.090;-8.118;2023-12-22T00:57:33;13.30;78.10
74368;DHT22;64991;41.090;-8.118;2023-12-22T01:02:36;13.20;78.00
74368;DHT22;64991;41.090;-8.118;2023-12-22T01:07:41;13.30;77.90
74368;DHT22;64991;41.090;-8.118;2023-12-22T01:12:45;13.20;77.90
74368;DHT22;64991;41.090;-8.118;2023-12-22T01:17:49;13.30;77.90
74368;DHT22;64991;41.090;-8.118;2023-12-22T01:22:55;13.30;78.00
74368;DHT22;64991;41.090;-8.118;2023-12-22T01:27:59;13.20;78.10
74368;DHT22;64991;41.090;-8.118;2023-12-22T01:33:06;13.20;77.90
74368;DHT22;64991;41.090;-8.118;2023-12-22T01:38:11;13.30;78.00
74368;DHT22;64991;41.090;-8.118;2023-12-22T01:43:15;13.20;77.90
74368;DHT22;64991;41.090;-8.118;2023-12-22T01:48:24;13.30;77.90
74368;DHT22;64991;41.090;-8.118;2023-12-22T01:53:29;13.30;77.90
74368;DHT22;64991;41.090;-8.118;2023-12-22T01:58:35;13.30;77.80
74368;DHT22;64991;41.090;-8.118;2023-12-22T02:03:39;13.30;78.00
74368;DHT22;64991;41.090;-8.118;2023-12-22T02:08:45;13.30;77.80
74368;DHT22;64991;41.090;-8.118;2023-12-22T02:13:50;13.20;77.90
74368;DHT22;64991;41.090;-8.118;2023-12-22T02:18:55;13.30;77.90
74368;DHT22;64991;41.090;-8.118;2023-12-22T02:24:00;13.30;77.80
74368;DHT22;64991;41.090;-8.118;2023-12-22T02:29:04;13.20;78.00
74368;DHT22;64991;41.090;-8.118;2023-12-22T02:34:09;13.20;78.00
74368;DHT22;64991;41.090;-8.118;2023-12-22T02:39:18;13.20;78.00
74368;DHT22;64991;41.090;-8.118;2023-12-22T02:44:22;13.30;78.00
74368;DHT22;64991;41.090;-8.118;2023-12-22T02:49:26;13.30;77.90
74368;DHT22;64991;41.090;-8.118;2023-12-22T02:54:31;13.20;77.80
74368;DHT22;64991;41.090;-8.118;2023-12-22T02:59:36;13.20;77.90
74368;DHT22;64991;41.090;-8.118;2023-12-22T03:04:40;13.20;77.80
74368;DHT22;64991;41.090;-8.118;2023-12-22T03:09:45;13.30;77.70
74368;DHT22;64991;41.090;-8.118;2023-12-22T03:14:49;13.30;77.70
74368;DHT22;64991;41.090;-8.118;2023-12-22T03:19:53;13.20;77.80
74368;DHT22;64991;41.090;-8.118;2023-12-22T03:24:58;13.30;77.80
74368;DHT22;64991;41.090;-8.118;2023-12-22T03:30:02;13.20;78.10
74368;DHT22;64991;41.090;-8.118;2023-12-22T03:35:06;13.20;77.80
74368;DHT22;64991;41.090;-8.118;2023-12-22T03:40:12;13.20;77.90
74368;DHT22;64991;41.090;-8.118;2023-12-22T03:45:16;13.10;78.10
74368;DHT22;64991;41.090;-8.118;2023-12-22T03:50:19;13.20;77.80
74368;DHT22;64991;41.090;-8.118;2023-12-22T03:55:24;13.20;77.90
74368;DHT22;64991;41.090;-8.118;2023-12-22T04:00:28;13.20;77.90
74368;DHT22;64991;41.090;-8.118;2023-12-22T04:05:32;13.20;77.80
74368;DHT22;64991;41.090;-8.118;2023-12-22T04:10:37;13.30;77.90
74368;DHT22;64991;41.090;-8.118;2023-12-22T04:15:42;13.20;77.80
74368;DHT22;64991;41.090;-8.118;2023-12-22T04:20:46;13.20;77.90
74368;DHT22;64991;41.090;-8.118;2023-12-22T04:25:53;13.20;77.90
74368;DHT22;64991;41.090;-8.118;2023-12-22T04:30:56;13.20;77.70
74368;DHT22;64991;41.090;-8.118;2023-12-22T04:36:00;13.20;77.90
74368;DHT22;64991;41.090;-8.118;2023-12-22T04:41:05;13.20;77.70
74368;DHT22;64991;41.090;-8.118;2023-12-22T04:46:09;13.20;77.80
74368;DHT22;64991;41.090;-8.118;2023-12-22T04:51:12;13.20;77.60
74368;DHT22;64991;41.090;-8.118;2023-12-22T04:56:18;13.20;77.90
74368;DHT22;64991;41.090;-8.118;2023-12-22T05:01:21;13.20;77.70
74368;DHT22;64991;41.090;-8.118;2023-12-22T05:06:25;13.20;77.70
74368;DHT22;64991;41.090;-8.118;2023-12-22T05:11:31;13.10;77.80
74368;DHT22;64991;41.090;-8.118;2023-12-22T05:16:35;13.20;77.50
74368;DHT22;64991;41.090;-8.118;2023-12-22T05:21:39;13.10;77.80
74368;DHT22;64991;41.090;-8.118;2023-12-22T05:26:44;13.20;77.70
74368;DHT22;64991;41.090;-8.118;2023-12-22T05:31:47;13.20;77.60
74368;DHT22;64991;41.090;-8.118;2023-12-22T05:36:52;13.20;77.60
74368;DHT22;64991;41.090;-8.118;2023-12-22T05:41:57;13.20;77.60
74368;DHT22;64991;41.090;-8.118;2023-12-22T05:47:01;13.20;77.50
74368;DHT22;64991;41.090;-8.118;2023-12-22T05:52:05;13.20;77.70
74368;DHT22;64991;41.090;-8.118;2023-12-22T05:57:10;13.20;77.60
74368;DHT22;64991;41.090;-8.118;2023-12-22T06:02:14;13.20;77.40
74368;DHT22;64991;41.090;-8.118;2023-12-22T06:07:18;13.20;77.60
74368;DHT22;64991;41.090;-8.118;2023-12-22T06:12:24;13.20;77.50
74368;DHT22;64991;41.090;-8.118;2023-12-22T06:17:27;13.20;77.70
74368;DHT22;64991;41.090;-8.118;2023-12-22T06:22:31;13.20;77.70
74368;DHT22;64991;41.090;-8.118;2023-12-22T06:27:37;13.20;77.50
74368;DHT22;64991;41.090;-8.118;2023-12-22T06:32:40;13.20;77.60
74368;DHT22;64991;41.090;-8.118;2023-12-22T06:37:44;13.10;77.60
74368;DHT22;64991;41.090;-8.118;2023-12-22T06:42:50;13.10;77.50
74368;DHT22;64991;41.090;-8.118;2023-12-22T06:47:53;13.20;77.60
74368;DHT22;64991;41.090;-8.118;2023-12-22T06:52:57;13.10;77.50
74368;DHT22;64991;41.090;-8.118;2023-12-22T06:58:15;13.10;77.60
74368;DHT22;64991;41.090;-8.118;2023-12-22T07:03:19;13.10;77.30
74368;DHT22;64991;41.090;-8.118;2023-12-22T07:08:23;13.10;77.50
74368;DHT22;64991;41.090;-8.118;2023-12-22T07:13:28;13.10;77.50
74368;DHT22;64991;41.090;-8.118;2023-12-22T07:18:32;13.00;77.50
74368;DHT22;64991;41.090;-8.118;2023-12-22T07:23:36;13.10;77.40
74368;DHT22;64991;41.090;-8.118;2023-12-22T07:28:41;13.10;77.30
74368;DHT22;64991;41.090;-8.118;2023-12-22T07:33:45;13.10;77.40
74368;DHT22;64991;41.090;-8.118;2023-12-22T07:38:50;13.10;77.50
74368;DHT22;64991;41.090;-8.118;2023-12-22T07:43:55;13.10;77.50
74368;DHT22;64991;41.090;-8.118;2023-12-22T07:48:58;13.10;77.40
74368;DHT22;64991;41.090;-8.118;2023-12-22T07:54:03;13.10;77.30
74368;DHT22;64991;41.090;-8.118;2023-12-22T07:59:10;13.10;77.30
74368;DHT22;64991;41.090;-8.118;2023-12-22T08:04:30;13.20;77.20
74368;DHT22;64991;41.090;-8.118;2023-12-22T08:09:34;13.00;77.30
74368;DHT22;64991;41.090;-8.118;2023-12-22T08:14:40;13.10;77.30
74368;DHT22;64991;41.090;-8.118;2023-12-22T08:19:43;13.10;77.30
74368;DHT22;64991;41.090;-8.118;2023-12-22T08:24:50;13.10;77.30
74368;DHT22;64991;41.090;-8.118;2023-12-22T08:29:55;13.00;77.20
74368;DHT22;64991;41.090;-8.118;2023-12-22T08:34:59;13.10;77.10
74368;DHT22;64991;41.090;-8.118;2023-12-22T08:40:04;13.10;77.20
74368;DHT22;64991;41.090;-8.118;2023-12-22T08:45:10;13.10;77.10
74368;DHT22;64991;41.090;-8.118;2023-12-22T08:50:15;13.10;77.10
74368;DHT22;64991;41.090;-8.118;2023-12-22T08:55:19;13.10;77.10
74368;DHT22;64991;41.090;-8.118;2023-12-22T09:00:24;13.10;77.10
74368;DHT22;64991;41.090;-8.118;2023-12-22T09:05:28;13.10;77.10
74368;DHT22;64991;41.090;-8.118;2023-12-22T09:10:32;13.00;77.00
74368;DHT22;64991;41.090;-8.118;2023-12-22T09:15:39;13.00;77.10
74368;DHT22;64991;41.090;-8.118;2023-12-22T09:20:43;13.00;77.30
74368;DHT22;64991;41.090;-8.118;2023-12-22T09:25:47;13.00;77.20
74368;DHT22;64991;41.090;-8.118;2023-12-22T09:30:52;13.10;77.20
74368;DHT22;64991;41.090;-8.118;2023-12-22T09:35:56;13.10;77.30
74368;DHT22;64991;41.090;-8.118;2023-12-22T09:41:00;13.00;77.20
74368;DHT22;64991;41.090;-8.118;2023-12-22T09:46:05;13.00;77.40
74368;DHT22;64991;41.090;-8.118;2023-12-22T09:51:09;13.10;77.00
74368;DHT22;64991;41.090;-8.118;2023-12-22T09:56:14;13.10;77.10
74368;DHT22;64991;41.090;-8.118;2023-12-22T10:01:19;13.10;77.20
74368;DHT22;64991;41.090;-8.118;2023-12-22T10:06:25;13.20;77.20
74368;DHT22;64991;41.090;-8.118;2023-12-22T10:11:29;13.20;77.10
74368;DHT22;64991;41.090;-8.118;2023-12-22T10:16:35;13.20;77.00
74368;DHT22;64991;41.090;-8.118;2023-12-22T10:21:39;13.20;77.00
74368;DHT22;64991;41.090;-8.118;2023-12-22T10:26:44;13.20;77.00
74368;DHT22;64991;41.090;-8.118;2023-12-22T10:31:50;13.30;77.00
74368;DHT22;64991;41.090;-8.118;2023-12-22T10:36:55;13.20;76.90
74368;DHT22;64991;41.090;-8.118;2023-12-22T10:42:00;13.20;77.10
74368;DHT22;64991;41.090;-8.118;2023-12-22T10:47:05;13.30;77.00
74368;DHT22;64991;41.090;-8.118;2023-12-22T10:52:10;13.20;77.00
74368;DHT22;64991;41.090;-8.118;2023-12-22T10:57:19;13.40;77.20
74368;DHT22;64991;41.090;-8.118;2023-12-22T11:02:26;13.30;77.20
74368;DHT22;64991;41.090;-8.118;2023-12-22T11:07:32;13.30;76.90
74368;DHT22;64991;41.090;-8.118;2023-12-22T11:12:38;13.30;77.10
74368;DHT22;64991;41.090;-8.118;2023-12-22T11:17:43;13.40;77.10
74368;DHT22;64991;41.090;-8.118;2023-12-22T11:22:48;13.50;77.00
74368;DHT22;64991;41.090;-8.118;2023-12-22T11:27:53;13.50;77.20
74368;DHT22;64991;41.090;-8.118;2023-12-22T11:33:00;13.40;77.10
74368;DHT22;64991;41.090;-8.118;2023-12-22T11:38:04;13.40;77.20
74368;DHT22;64991;41.090;-8.118;2023-12-22T11:43:09;13.40;77.20
74368;DHT22;64991;41.090;-8.118;2023-12-22T11:48:15;13.40;77.20
74368;DHT22;64991;41.090;-8.118;2023-12-22T11:53:20;13.40;77.40
74368;DHT22;64991;41.090;-8.118;2023-12-22T11:58:37;13.50;77.40
74368;DHT22;64991;41.090;-8.118;2023-12-22T12:03:49;13.50;77.40
74368;DHT22;64991;41.090;-8.118;2023-12-22T12:08:55;13.50;77.30
74368;DHT22;64991;41.090;-8.118;2023-12-22T12:13:59;13.60;77.40
74368;DHT22;64991;41.090;-8.118;2023-12-22T12:19:15;13.50;77.40
74368;DHT22;64991;41.090;-8.118;2023-12-22T12:24:19;13.50;77.20
74368;DHT22;64991;41.090;-8.118;2023-12-22T12:29:22;13.40;77.30
74368;DHT22;64991;41.090;-8.118;2023-12-22T12:34:28;13.50;77.40
74368;DHT22;64991;41.090;-8.118;2023-12-22T12:39:34;13.50;77.40
74368;DHT22;64991;41.090;-8.118;2023-12-22T12:44:38;13.50;77.20
74368;DHT22;64991;41.090;-8.118;2023-12-22T12:49:44;13.50;77.40
74368;DHT22;64991;41.090;-8.118;2023-12-22T12:54:48;13.70;77.30
74368;DHT22;64991;41.090;-8.118;2023-12-22T12:59:52;13.60;77.30
74368;DHT22;64991;41.090;-8.118;2023-12-22T13:04:58;13.50;77.40
74368;DHT22;64991;41.090;-8.118;2023-12-22T13:10:18;13.60;77.50
74368;DHT22;64991;41.090;-8.118;2023-12-22T13:15:23;13.60;77.40
74368;DHT22;64991;41.090;-8.118;2023-12-22T13:20:28;13.60;77.50
74368;DHT22;64991;41.090;-8.118;2023-12-22T13:25:37;13.60;77.40
74368;DHT22;64991;41.090;-8.118;2023-12-22T13:30:42;13.70;77.50
74368;DHT22;64991;41.090;-8.118;2023-12-22T13:35:49;13.60;77.50
74368;DHT22;64991;41.090;-8.118;2023-12-22T13:40:53;13.70;77.50
74368;DHT22;64991;41.090;-8.118;2023-12-22T13:45:56;13.70;77.50
74368;DHT22;64991;41.090;-8.118;2023-12-22T13:51:02;13.70;77.60
74368;DHT22;64991;41.090;-8.118;2023-12-22T13:56:06;13.60;77.70
74368;DHT22;64991;41.090;-8.118;2023-12-22T14:01:12;13.60;77.70
74368;DHT22;64991;41.090;-8.118;2023-12-22T14:06:19;13.60;77.50
74368;DHT22;64991;41.090;-8.118;2023-12-22T14:11:23;13.70;77.80
74368;DHT22;64991;41.090;-8.118;2023-12-22T14:16:30;13.60;77.50
74368;DHT22;64991;41.090;-8.118;2023-12-22T14:21:35;13.60;77.70
74368;DHT22;64991;41.090;-8.118;2023-12-22T14:26:51;13.60;77.80
74368;DHT22;64991;41.090;-8.118;2023-12-22T14:31:55;13.60;77.80
74368;DHT22;64991;41.090;-8.118;2023-12-22T14:37:00;13.60;77.80
74368;DHT22;64991;41.090;-8.118;2023-12-22T14:42:05;13.70;77.90
74368;DHT22;64991;41.090;-8.118;2023-12-22T14:47:09;13.60;77.80
74368;DHT22;64991;41.090;-8.118;2023-12-22T14:52:16;13.60;77.80
74368;DHT22;64991;41.090;-8.118;2023-12-22T14:57:20;13.60;77.80
74368;DHT22;64991;41.090;-8.118;2023-12-22T15:02:24;13.60;77.60
74368;DHT22;64991;41.090;-8.118;2023-12-22T15:07:29;13.60;77.80
74368;DHT22;64991;41.090;-8.118;2023-12-22T15:12:34;13.60;77.80
74368;DHT22;64991;41.090;-8.118;2023-12-22T15:17:39;13.60;77.90
74368;DHT22;64991;41.090;-8.118;2023-12-22T15:22:45;13.60;78.00
74368;DHT22;64991;41.090;-8.118;2023-12-22T15:27:49;13.60;77.90
74368;DHT22;64991;41.090;-8.118;2023-12-22T15:32:52;13.60;77.90
74368;DHT22;64991;41.090;-8.118;2023-12-22T15:37:58;13.60;77.80
74368;DHT22;64991;41.090;-8.118;2023-12-22T15:43:01;13.50;77.90
74368;DHT22;64991;41.090;-8.118;2023-12-22T15:48:06;13.50;78.00
74368;DHT22;64991;41.090;-8.118;2023-12-22T15:53:11;13.60;78.00
74368;DHT22;64991;41.090;-8.118;2023-12-22T15:58:15;13.60;77.90
74368;DHT22;64991;41.090;-8.118;2023-12-22T16:03:19;13.60;78.10
74368;DHT22;64991;41.090;-8.118;2023-12-22T16:08:25;13.60;77.90
74368;DHT22;64991;41.090;-8.118;2023-12-22T16:13:29;13.60;77.90
74368;DHT22;64991;41.090;-8.118;2023-12-22T16:18:32;13.50;78.00
74368;DHT22;64991;41.090;-8.118;2023-12-22T16:23:38;13.50;77.90
74368;DHT22;64991;41.090;-8.118;2023-12-22T16:28:42;13.60;78.10
74368;DHT22;64991;41.090;-8.118;2023-12-22T16:33:45;13.50;78.10
74368;DHT22;64991;41.090;-8.118;2023-12-22T16:38:51;13.50;77.90
74368;DHT22;64991;41.090;-8.118;2023-12-22T16:43:55;13.50;77.90
74368;DHT22;64991;41.090;-8.118;2023-12-22T16:48:59;13.50;77.80
74368;DHT22;64991;41.090;-8.118;2023-12-22T16:54:06;13.50;77.90
74368;DHT22;64991;41.090;-8.118;2023-12-22T16:59:10;13.50;78.00
74368;DHT22;64991;41.090;-8.118;2023-12-22T17:04:14;13.50;78.00
74368;DHT22;64991;41.090;-8.118;2023-12-22T17:09:19;13.40;77.90
74368;DHT22;64991;41.090;-8.118;2023-12-22T17:14:24;13.40;77.90
74368;DHT22;64991;41.090;-8.118;2023-12-22T17:19:28;13.40;77.90
74368;DHT22;64991;41.090;-8.118;2023-12-22T17:24:33;13.50;77.90
74368;DHT22;64991;41.090;-8.118;2023-12-22T17:29:37;13.40;78.00
74368;DHT22;64991;41.090;-8.118;2023-12-22T17:34:41;13.40;78.10
74368;DHT22;64991;41.090;-8.118;2023-12-22T17:39:47;13.50;77.80
74368;DHT22;64991;41.090;-8.118;2023-12-22T17:44:51;13.50;77.80
74368;DHT22;64991;41.090;-8.118;2023-12-22T17:49:54;13.30;77.60
74368;DHT22;64991;41.090;-8.118;2023-12-22T17:55:00;13.40;77.90
74368;DHT22;64991;41.090;-8.118;2023-12-22T18:00:04;13.40;77.80
74368;DHT22;64991;41.090;-8.118;2023-12-22T18:05:08;13.40;77.90
74368;DHT22;64991;41.090;-8.118;2023-12-22T18:10:14;13.40;78.00
74368;DHT22;64991;41.090;-8.118;2023-12-22T18:15:19;13.40;77.80
74368;DHT22;64991;41.090;-8.118;2023-12-22T18:20:22;13.30;77.80
74368;DHT22;64991;41.090;-8.118;2023-12-22T18:25:27;13.40;77.70
74368;DHT22;64991;41.090;-8.118;2023-12-22T18:30:32;13.50;77.70
74368;DHT22;64991;41.090;-8.118;2023-12-22T18:35:35;13.40;77.90
74368;DHT22;64991;41.090;-8.118;2023-12-22T18:40:41;13.40;77.60
74368;DHT22;64991;41.090;-8.118;2023-12-22T18:45:44;13.40;77.90
74368;DHT22;64991;41.090;-8.118;2023-12-22T18:50:48;13.40;77.80
74368;DHT22;64991;41.090;-8.118;2023-12-22T18:55:56;13.30;77.90
74368;DHT22;64991;41.090;-8.118;2023-12-22T19:01:00;13.40;77.80
74368;DHT22;64991;41.090;-8.118;2023-12-22T19:06:05;13.40;77.60
74368;DHT22;64991;41.090;-8.118;2023-12-22T19:11:10;13.40;77.80
74368;DHT22;64991;41.090;-8.118;2023-12-22T19:16:16;13.40;77.80
74368;DHT22;64991;41.090;-8.118;2023-12-22T19:21:20;13.40;77.70
74368;DHT22;64991;41.090;-8.118;2023-12-22T19:26:26;13.30;77.60
74368;DHT22;64991;41.090;-8.118;2023-12-22T19:31:29;13.30;77.60
74368;DHT22;64991;41.090;-8.118;2023-12-22T19:36:36;13.40;77.60
74368;DHT22;64991;41.090;-8.118;2023-12-22T19:41:41;13.40;77.50
74368;DHT22;64991;41.090;-8.118;2023-12-22T19:46:45;13.40;77.50
74368;DHT22;64991;41.090;-8.118;2023-12-22T19:51:49;13.40;77.30
74368;DHT22;64991;41.090;-8.118;2023-12-22T19:56:54;13.40;77.40
74368;DHT22;64991;41.090;-8.118;2023-12-22T20:01:58;13.40;77.40
74368;DHT22;64991;41.090;-8.118;2023-12-22T20:07:02;13.40;77.40
74368;DHT22;64991;41.090;-8.118;2023-12-22T20:12:08;13.30;77.30
74368;DHT22;64991;41.090;-8.118;2023-12-22T20:17:12;13.40;77.60
74368;DHT22;64991;41.090;-8.118;2023-12-22T20:22:16;13.40;77.40
74368;DHT22;64991;41.090;-8.118;2023-12-22T20:27:21;13.30;77.50
74368;DHT22;64991;41.090;-8.118;2023-12-22T20:32:25;13.40;77.40
74368;DHT22;64991;41.090;-8.118;2023-12-22T20:37:29;13.50;77.50
74368;DHT22;64991;41.090;-8.118;2023-12-22T20:42:34;13.40;77.20
74368;DHT22;64991;41.090;-8.118;2023-12-22T20:47:38;13.30;77.50
74368;DHT22;64991;41.090;-8.118;2023-12-22T20:52:42;13.40;77.40
74368;DHT22;64991;41.090;-8.118;2023-12-22T20:57:48;13.40;77.20
74368;DHT22;64991;41.090;-8.118;2023-12-22T21:02:52;13.40;77.30
74368;DHT22;64991;41.090;-8.118;2023-12-22T21:07:55;13.40;77.30
74368;DHT22;64991;41.090;-8.118;2023-12-22T21:13:01;13.40;77.30
74368;DHT22;64991;41.090;-8.118;2023-12-22T21:18:04;13.40;77.20
74368;DHT22;64991;41.090;-8.118;2023-12-22T21:23:08;13.40;77.50
74368;DHT22;64991;41.090;-8.118;2023-12-22T21:28:18;13.40;77.30
74368;DHT22;64991;41.090;-8.118;2023-12-22T21:33:21;13.30;77.40
74368;DHT22;64991;41.090;-8.118;2023-12-22T21:38:25;13.30;77.30
74368;DHT22;64991;41.090;-8.118;2023-12-22T21:43:30;13.40;77.30
74368;DHT22;64991;41.090;-8.118;2023-12-22T21:48:34;13.40;77.30
74368;DHT22;64991;41.090;-8.118;2023-12-22T21:53:38;13.40;77.40
74368;DHT22;64991;41.090;-8.118;2023-12-22T21:58:43;13.40;77.50
74368;DHT22;64991;41.090;-8.118;2023-12-22T22:03:47;13.30;77.50
74368;DHT22;64991;41.090;-8.118;2023-12-22T22:08:51;13.40;77.60
74368;DHT22;64991;41.090;-8.118;2023-12-22T22:13:56;13.30;77.40
74368;DHT22;64991;41.090;-8.118;2023-12-22T22:19:00;13.40;77.60
74368;DHT22;64991;41.090;-8.118;2023-12-22T22:24:04;13.40;77.30
74368;DHT22;64991;41.090;-8.118;2023-12-22T22:29:10;13.40;77.30
74368;DHT22;64991;41.090;-8.118;2023-12-22T22:34:15;13.40;77.30
74368;DHT22;64991;41.090;-8.118;2023-12-22T22:39:20;13.30;77.20
74368;DHT22;64991;41.090;-8.118;2023-12-22T22:44:25;13.40;77.40
74368;DHT22;64991;41.090;-8.118;2023-12-22T22:49:28;13.40;77.20
74368;DHT22;64991;41.090;-8.118;2023-12-22T22:54:32;13.30;77.20
74368;DHT22;64991;41.090;-8.118;2023-12-22T22:59:38;13.40;77.30
74368;DHT22;64991;41.090;-8.118;2023-12-22T23:04:42;13.40;77.40
74368;DHT22;64991;41.090;-8.118;2023-12-22T23:09:45;13.40;77.40
74368;DHT22;64991;41.090;-8.118;2023-12-22T23:14:51;13.40;77.30
74368;DHT22;64991;41.090;-8.118;2023-12-22T23:19:55;13.40;77.30
74368;DHT22;64991;41.090;-8.118;2023-12-22T23:24:59;13.40;77.30
74368;DHT22;64991;41.090;-8.118;2023-12-22T23:30:05;13.30;77.20
74368;DHT22;64991;41.090;-8.118;2023-12-22T23:35:12;13.30;77.20
74368;DHT22;64991;41.090;-8.118;2023-12-22T23:40:16;13.40;77.40
74368;DHT22;64991;41.090;-8.118;2023-12-22T23:45:21;13.40;77.30
74368;DHT22;64991;41.090;-8.118;2023-12-22T23:50:25;13.40;77.30
74368;DHT22;64991;41.090;-8.118;2023-12-22T23:55:28;13.40;77.60
